sensor_id;sensor_type;location;lat;lon;timestamp;pressure;altitude;pressure_sealevel;temperature;humidity
82160;BME280;71734;50.876;7.372;2024-03-02T00:01:39;97635.91;;;5.94;85.15
82160;BME280;71734;50.876;7.372;2024-03-02T00:04:07;97639.09;;;6.02;83.92
82160;BME280;71734;50.876;7.372;2024-03-02T00:06:35;97633.69;;;6.05;84.12
82160;BME280;71734;50.876;7.372;2024-03-02T00:09:02;97634.41;;;6.08;84.63
82160;BME280;71734;50.876;7.372;2024-03-02T00:11:29;97628.44;;;6.05;84.52
82160;BME280;71734;50.876;7.372;2024-03-02T00:13:55;97632.25;;;5.98;84.87
82160;BME280;71734;50.876;7.372;2024-03-02T00:16:22;97630.28;;;6.03;84.55
82160;BME280;71734;50.876;7.372;2024-03-02T00:18:49;97624.56;;;6.14;84.28
82160;BME280;71734;50.876;7.372;2024-03-02T00:21:16;97625.31;;;6.17;84.16
82160;BME280;71734;50.876;7.372;2024-03-02T00:23:48;97629.31;;;6.26;84.13
82160;BME280;71734;50.876;7.372;2024-03-02T00:26:15;97624.00;;;6.27;83.71
82160;BME280;71734;50.876;7.372;2024-03-02T00:28:42;97622.44;;;6.23;84.40
82160;BME280;71734;50.876;7.372;2024-03-02T00:31:11;97626.50;;;6.30;83.57
82160;BME280;71734;50.876;7.372;2024-03-02T00:33:41;97609.91;;;6.28;84.15
82160;BME280;71734;50.876;7.372;2024-03-02T00:36:09;97622.03;;;6.32;83.85
82160;BME280;71734;50.876;7.372;2024-03-02T00:38:44;97606.66;;;6.23;83.98
82160;BME280;71734;50.876;7.372;2024-03-02T00:41:15;97606.41;;;6.28;84.16
82160;BME280;71734;50.876;7.372;2024-03-02T00:43:45;97607.03;;;6.34;83.30
82160;BME280;71734;50.876;7.372;2024-03-02T00:46:16;97612.97;;;6.39;82.98
82160;BME280;71734;50.876;7.372;2024-03-02T00:48:52;97597.44;;;6.33;83.42
82160;BME280;71734;50.876;7.372;2024-03-02T00:51:20;97604.25;;;6.37;83.42
82160;BME280;71734;50.876;7.372;2024-03-02T00:53:47;97603.03;;;6.46;82.27
82160;BME280;71734;50.876;7.372;2024-03-02T00:56:15;97593.22;;;6.49;82.10
82160;BME280;71734;50.876;7.372;2024-03-02T00:58:42;97577.81;;;6.40;82.66
82160;BME280;71734;50.876;7.372;2024-03-02T01:01:09;97574.56;;;6.35;82.38
82160;BME280;71734;50.876;7.372;2024-03-02T01:03:35;97584.56;;;6.27;82.42
82160;BME280;71734;50.876;7.372;2024-03-02T01:06:02;97585.47;;;6.26;82.58
82160;BME280;71734;50.876;7.372;2024-03-02T01:08:29;97585.31;;;6.29;82.34
82160;BME280;71734;50.876;7.372;2024-03-02T01:10:56;97588.75;;;6.31;81.42
82160;BME280;71734;50.876;7.372;2024-03-02T01:13:26;97582.88;;;6.25;82.50
82160;BME280;71734;50.876;7.372;2024-03-02T01:15:53;97580.59;;;6.17;82.30
82160;BME280;71734;50.876;7.372;2024-03-02T01:18:19;97584.13;;;6.16;82.41
82160;BME280;71734;50.876;7.372;2024-03-02T01:20:47;97587.56;;;6.18;82.04
82160;BME280;71734;50.876;7.372;2024-03-02T01:23:16;97575.47;;;6.14;82.07
82160;BME280;71734;50.876;7.372;2024-03-02T01:25:43;97578.50;;;6.25;81.81
82160;BME280;71734;50.876;7.372;2024-03-02T01:28:09;97577.28;;;6.32;81.54
82160;BME280;71734;50.876;7.372;2024-03-02T01:30:37;97566.06;;;6.29;81.25
82160;BME280;71734;50.876;7.372;2024-03-02T01:33:04;97565.88;;;6.33;81.27
82160;BME280;71734;50.876;7.372;2024-03-02T01:35:31;97565.63;;;6.19;81.81
82160;BME280;71734;50.876;7.372;2024-03-02T01:37:58;97567.44;;;6.17;82.27
82160;BME280;71734;50.876;7.372;2024-03-02T01:40:24;97570.78;;;6.21;82.50
82160;BME280;71734;50.876;7.372;2024-03-02T01:42:52;97564.66;;;6.20;81.76
82160;BME280;71734;50.876;7.372;2024-03-02T01:45:19;97560.34;;;6.19;81.66
82160;BME280;71734;50.876;7.372;2024-03-02T01:47:47;97572.44;;;6.23;81.20
82160;BME280;71734;50.876;7.372;2024-03-02T01:50:14;97560.03;;;6.27;81.73
82160;BME280;71734;50.876;7.372;2024-03-02T01:52:40;97573.38;;;6.22;81.65
82160;BME280;71734;50.876;7.372;2024-03-02T01:55:08;97569.50;;;6.11;81.85
82160;BME280;71734;50.876;7.372;2024-03-02T01:57:35;97568.50;;;6.13;81.65
82160;BME280;71734;50.876;7.372;2024-03-02T02:00:01;97567.78;;;6.10;81.50
82160;BME280;71734;50.876;7.372;2024-03-02T02:02:28;97562.50;;;6.10;81.37
82160;BME280;71734;50.876;7.372;2024-03-02T02:04:56;97552.47;;;6.19;81.16
82160;BME280;71734;50.876;7.372;2024-03-02T02:07:23;97548.84;;;6.22;81.13
82160;BME280;71734;50.876;7.372;2024-03-02T02:09:49;97541.00;;;6.20;81.51
82160;BME280;71734;50.876;7.372;2024-03-02T02:12:16;97556.00;;;6.18;81.03
82160;BME280;71734;50.876;7.372;2024-03-02T02:14:47;97552.84;;;6.10;81.39
82160;BME280;71734;50.876;7.372;2024-03-02T02:17:14;97548.50;;;6.09;81.79
82160;BME280;71734;50.876;7.372;2024-03-02T02:19:40;97536.94;;;6.13;81.10
82160;BME280;71734;50.876;7.372;2024-03-02T02:22:09;97533.59;;;6.10;81.50
82160;BME280;71734;50.876;7.372;2024-03-02T02:24:35;97551.94;;;6.11;81.20
82160;BME280;71734;50.876;7.372;2024-03-02T02:27:02;97541.66;;;6.25;80.59
82160;BME280;71734;50.876;7.372;2024-03-02T02:29:28;97540.63;;;6.09;81.15
82160;BME280;71734;50.876;7.372;2024-03-02T02:31:55;97535.34;;;6.09;80.85
82160;BME280;71734;50.876;7.372;2024-03-02T02:34:21;97546.00;;;6.06;81.26
82160;BME280;71734;50.876;7.372;2024-03-02T02:36:48;97539.41;;;6.16;80.63
82160;BME280;71734;50.876;7.372;2024-03-02T02:39:18;97549.41;;;6.08;80.44
82160;BME280;71734;50.876;7.372;2024-03-02T02:41:46;97529.97;;;6.12;80.63
82160;BME280;71734;50.876;7.372;2024-03-02T02:44:12;97529.44;;;6.04;81.21
82160;BME280;71734;50.876;7.372;2024-03-02T02:46:39;97536.94;;;6.13;79.91
82160;BME280;71734;50.876;7.372;2024-03-02T02:49:05;97533.44;;;6.13;80.60
82160;BME280;71734;50.876;7.372;2024-03-02T02:51:32;97526.56;;;6.10;80.41
82160;BME280;71734;50.876;7.372;2024-03-02T02:53:59;97524.97;;;6.06;81.17
82160;BME280;71734;50.876;7.372;2024-03-02T02:56:27;97516.75;;;5.93;80.35
82160;BME280;71734;50.876;7.372;2024-03-02T02:58:53;97507.75;;;5.99;81.65
82160;BME280;71734;50.876;7.372;2024-03-02T03:01:21;97506.38;;;5.90;82.02
82160;BME280;71734;50.876;7.372;2024-03-02T03:03:47;97511.56;;;5.92;81.51
82160;BME280;71734;50.876;7.372;2024-03-02T03:06:14;97509.44;;;6.00;80.67
82160;BME280;71734;50.876;7.372;2024-03-02T03:08:40;97511.03;;;6.04;80.76
82160;BME280;71734;50.876;7.372;2024-03-02T03:11:07;97525.38;;;5.97;81.62
82160;BME280;71734;50.876;7.372;2024-03-02T03:13:35;97528.00;;;5.97;81.59
82160;BME280;71734;50.876;7.372;2024-03-02T03:16:02;97521.34;;;5.88;81.42
82160;BME280;71734;50.876;7.372;2024-03-02T03:18:29;97525.50;;;5.94;81.64
82160;BME280;71734;50.876;7.372;2024-03-02T03:20:55;97527.81;;;6.01;80.60
82160;BME280;71734;50.876;7.372;2024-03-02T03:23:22;97535.16;;;5.93;80.76
82160;BME280;71734;50.876;7.372;2024-03-02T03:25:48;97529.03;;;5.93;80.93
82160;BME280;71734;50.876;7.372;2024-03-02T03:28:15;97544.81;;;5.71;82.04
82160;BME280;71734;50.876;7.372;2024-03-02T03:30:42;97549.69;;;5.80;81.49
82160;BME280;71734;50.876;7.372;2024-03-02T03:33:09;97545.53;;;5.75;81.86
82160;BME280;71734;50.876;7.372;2024-03-02T03:35:36;97553.00;;;5.85;81.60
82160;BME280;71734;50.876;7.372;2024-03-02T03:38:03;97545.16;;;5.84;81.47
82160;BME280;71734;50.876;7.372;2024-03-02T03:40:30;97541.63;;;5.85;81.91
82160;BME280;71734;50.876;7.372;2024-03-02T03:42:56;97543.09;;;5.92;81.27
82160;BME280;71734;50.876;7.372;2024-03-02T03:45:23;97551.47;;;5.80;81.55
82160;BME280;71734;50.876;7.372;2024-03-02T03:47:52;97538.22;;;5.83;81.64
82160;BME280;71734;50.876;7.372;2024-03-02T03:50:20;97541.66;;;5.63;81.78
82160;BME280;71734;50.876;7.372;2024-03-02T03:52:46;97543.94;;;5.71;81.75
82160;BME280;71734;50.876;7.372;2024-03-02T03:55:13;97541.75;;;5.82;81.45
82160;BME280;71734;50.876;7.372;2024-03-02T03:57:40;97535.28;;;5.90;81.68
82160;BME280;71734;50.876;7.372;2024-03-02T04:00:07;97539.91;;;5.84;81.24
82160;BME280;71734;50.876;7.372;2024-03-02T04:02:35;97547.72;;;5.87;81.10
82160;BME280;71734;50.876;7.372;2024-03-02T04:05:03;97553.75;;;5.89;81.11
82160;BME280;71734;50.876;7.372;2024-03-02T04:07:34;97546.09;;;5.83;81.38
82160;BME280;71734;50.876;7.372;2024-03-02T04:10:05;97553.75;;;5.89;81.63
82160;BME280;71734;50.876;7.372;2024-03-02T04:12:33;97557.06;;;5.94;81.68
82160;BME280;71734;50.876;7.372;2024-03-02T04:14:59;97549.22;;;5.92;81.47
82160;BME280;71734;50.876;7.372;2024-03-02T04:17:26;97553.63;;;5.92;81.77
82160;BME280;71734;50.876;7.372;2024-03-02T04:19:53;97559.81;;;6.11;81.43
82160;BME280;71734;50.876;7.372;2024-03-02T04:22:21;97553.09;;;6.04;81.45
82160;BME280;71734;50.876;7.372;2024-03-02T04:24:48;97548.03;;;5.99;81.77
82160;BME280;71734;50.876;7.372;2024-03-02T04:27:15;97530.09;;;5.89;81.96
82160;BME280;71734;50.876;7.372;2024-03-02T04:29:41;97551.41;;;6.03;81.40
82160;BME280;71734;50.876;7.372;2024-03-02T04:32:08;97551.94;;;5.91;81.85
82160;BME280;71734;50.876;7.372;2024-03-02T04:34:34;97562.06;;;5.78;82.42
82160;BME280;71734;50.876;7.372;2024-03-02T04:37:01;97564.50;;;5.83;82.65
82160;BME280;71734;50.876;7.372;2024-03-02T04:39:29;97572.94;;;5.69;83.08
82160;BME280;71734;50.876;7.372;2024-03-02T04:41:55;97566.03;;;5.67;83.34
82160;BME280;71734;50.876;7.372;2024-03-02T04:44:22;97559.84;;;5.68;82.99
82160;BME280;71734;50.876;7.372;2024-03-02T04:46:49;97562.03;;;5.58;83.34
82160;BME280;71734;50.876;7.372;2024-03-02T04:49:15;97568.53;;;5.70;83.21
82160;BME280;71734;50.876;7.372;2024-03-02T04:51:41;97567.47;;;5.53;84.00
82160;BME280;71734;50.876;7.372;2024-03-02T04:54:08;97574.94;;;5.62;83.81
82160;BME280;71734;50.876;7.372;2024-03-02T04:56:36;97574.31;;;5.57;84.04
82160;BME280;71734;50.876;7.372;2024-03-02T04:59:09;97575.25;;;5.55;83.73
82160;BME280;71734;50.876;7.372;2024-03-02T05:01:36;97588.34;;;5.56;83.87
82160;BME280;71734;50.876;7.372;2024-03-02T05:04:03;97585.00;;;5.53;84.43
82160;BME280;71734;50.876;7.372;2024-03-02T05:06:29;97589.19;;;5.57;83.75
82160;BME280;71734;50.876;7.372;2024-03-02T05:08:56;97592.25;;;5.68;83.68
82160;BME280;71734;50.876;7.372;2024-03-02T05:11:22;97596.66;;;5.68;83.51
82160;BME280;71734;50.876;7.372;2024-03-02T05:14:15;97594.44;;;5.79;83.58
82160;BME280;71734;50.876;7.372;2024-03-02T05:16:42;97603.63;;;5.69;84.33
82160;BME280;71734;50.876;7.372;2024-03-02T05:19:09;97594.38;;;5.58;84.42
82160;BME280;71734;50.876;7.372;2024-03-02T05:21:35;97599.59;;;5.60;84.51
82160;BME280;71734;50.876;7.372;2024-03-02T05:24:02;97598.81;;;5.58;84.72
82160;BME280;71734;50.876;7.372;2024-03-02T05:26:29;97592.78;;;5.54;84.74
82160;BME280;71734;50.876;7.372;2024-03-02T05:28:55;97602.16;;;5.61;84.66
82160;BME280;71734;50.876;7.372;2024-03-02T05:31:23;97611.69;;;5.64;84.71
82160;BME280;71734;50.876;7.372;2024-03-02T05:33:49;97606.75;;;5.56;85.22
82160;BME280;71734;50.876;7.372;2024-03-02T05:36:17;97599.63;;;5.58;84.86
82160;BME280;71734;50.876;7.372;2024-03-02T05:38:45;97601.44;;;5.58;84.83
82160;BME280;71734;50.876;7.372;2024-03-02T05:41:12;97603.19;;;5.57;84.90
82160;BME280;71734;50.876;7.372;2024-03-02T05:43:39;97603.31;;;5.54;84.95
82160;BME280;71734;50.876;7.372;2024-03-02T05:46:05;97601.72;;;5.50;85.33
82160;BME280;71734;50.876;7.372;2024-03-02T05:48:33;97602.88;;;5.43;85.61
82160;BME280;71734;50.876;7.372;2024-03-02T05:51:00;97597.97;;;5.34;85.99
82160;BME280;71734;50.876;7.372;2024-03-02T05:53:26;97598.09;;;5.31;86.42
82160;BME280;71734;50.876;7.372;2024-03-02T05:55:53;97593.09;;;5.25;86.23
82160;BME280;71734;50.876;7.372;2024-03-02T05:58:21;97594.78;;;5.26;86.53
82160;BME280;71734;50.876;7.372;2024-03-02T06:00:58;97598.34;;;5.25;86.10
82160;BME280;71734;50.876;7.372;2024-03-02T06:03:24;97610.44;;;5.29;85.97
82160;BME280;71734;50.876;7.372;2024-03-02T06:05:52;97609.50;;;5.30;86.00
82160;BME280;71734;50.876;7.372;2024-03-02T06:08:19;97615.56;;;5.32;85.91
82160;BME280;71734;50.876;7.372;2024-03-02T06:10:45;97617.94;;;5.38;85.07
82160;BME280;71734;50.876;7.372;2024-03-02T06:13:12;97619.09;;;5.31;85.89
82160;BME280;71734;50.876;7.372;2024-03-02T06:15:38;97621.31;;;5.20;86.46
82160;BME280;71734;50.876;7.372;2024-03-02T06:18:05;97624.72;;;5.22;86.10
82160;BME280;71734;50.876;7.372;2024-03-02T06:20:33;97621.31;;;5.20;86.16
82160;BME280;71734;50.876;7.372;2024-03-02T06:23:01;97638.53;;;5.27;86.57
82160;BME280;71734;50.876;7.372;2024-03-02T06:25:27;97633.06;;;5.33;85.71
82160;BME280;71734;50.876;7.372;2024-03-02T06:27:54;97637.31;;;5.36;86.08
82160;BME280;71734;50.876;7.372;2024-03-02T06:30:20;97628.75;;;5.31;85.92
82160;BME280;71734;50.876;7.372;2024-03-02T06:32:47;97633.06;;;5.33;86.34
82160;BME280;71734;50.876;7.372;2024-03-02T06:35:13;97640.75;;;5.38;85.43
82160;BME280;71734;50.876;7.372;2024-03-02T06:37:40;97628.53;;;5.37;85.69
82160;BME280;71734;50.876;7.372;2024-03-02T06:40:09;97643.56;;;5.33;86.19
82160;BME280;71734;50.876;7.372;2024-03-02T06:42:35;97640.00;;;5.34;85.79
82160;BME280;71734;50.876;7.372;2024-03-02T06:45:03;97637.84;;;5.45;85.33
82160;BME280;71734;50.876;7.372;2024-03-02T06:47:29;97651.88;;;5.44;85.41
82160;BME280;71734;50.876;7.372;2024-03-02T06:49:56;97644.00;;;5.44;85.67
82160;BME280;71734;50.876;7.372;2024-03-02T06:52:23;97645.03;;;5.40;85.94
82160;BME280;71734;50.876;7.372;2024-03-02T06:54:50;97642.44;;;5.39;85.84
82160;BME280;71734;50.876;7.372;2024-03-02T06:57:18;97640.69;;;5.39;85.22
82160;BME280;71734;50.876;7.372;2024-03-02T06:59:48;97641.50;;;5.41;84.84
82160;BME280;71734;50.876;7.372;2024-03-02T07:02:16;97639.78;;;5.40;85.74
82160;BME280;71734;50.876;7.372;2024-03-02T07:04:43;97652.06;;;5.40;85.36
82160;BME280;71734;50.876;7.372;2024-03-02T07:07:10;97646.97;;;5.35;85.62
82160;BME280;71734;50.876;7.372;2024-03-02T07:09:37;97644.34;;;5.35;85.74
82160;BME280;71734;50.876;7.372;2024-03-02T07:12:04;97645.94;;;5.39;85.50
82160;BME280;71734;50.876;7.372;2024-03-02T07:14:32;97651.94;;;5.43;85.55
82160;BME280;71734;50.876;7.372;2024-03-02T07:17:16;97651.38;;;5.35;85.64
82160;BME280;71734;50.876;7.372;2024-03-02T07:19:42;97653.94;;;5.36;85.62
82160;BME280;71734;50.876;7.372;2024-03-02T07:22:25;97660.91;;;5.37;85.94
82160;BME280;71734;50.876;7.372;2024-03-02T07:24:52;97667.84;;;5.38;85.49
82160;BME280;71734;50.876;7.372;2024-03-02T07:27:18;97661.53;;;5.44;85.44
82160;BME280;71734;50.876;7.372;2024-03-02T07:29:46;97652.63;;;5.48;85.00
82160;BME280;71734;50.876;7.372;2024-03-02T07:32:23;97666.25;;;5.57;84.68
82160;BME280;71734;50.876;7.372;2024-03-02T07:34:53;97651.09;;;5.64;84.41
82160;BME280;71734;50.876;7.372;2024-03-02T07:37:21;97657.59;;;5.77;84.07
82160;BME280;71734;50.876;7.372;2024-03-02T07:39:49;97672.50;;;5.77;83.67
82160;BME280;71734;50.876;7.372;2024-03-02T07:42:16;97667.94;;;5.82;84.13
82160;BME280;71734;50.876;7.372;2024-03-02T07:44:45;97665.06;;;5.88;83.23
82160;BME280;71734;50.876;7.372;2024-03-02T07:47:13;97667.09;;;6.03;83.90
82160;BME280;71734;50.876;7.372;2024-03-02T07:49:40;97676.13;;;6.18;82.30
82160;BME280;71734;50.876;7.372;2024-03-02T07:52:06;97684.06;;;6.38;81.63
82160;BME280;71734;50.876;7.372;2024-03-02T07:54:35;97686.13;;;6.51;82.35
82160;BME280;71734;50.876;7.372;2024-03-02T07:57:01;97687.28;;;6.65;80.90
82160;BME280;71734;50.876;7.372;2024-03-02T07:59:28;97689.91;;;6.85;79.86
82160;BME280;71734;50.876;7.372;2024-03-02T08:01:55;97697.50;;;6.92;79.69
82160;BME280;71734;50.876;7.372;2024-03-02T08:04:23;97694.13;;;6.89;79.30
82160;BME280;71734;50.876;7.372;2024-03-02T08:06:50;97690.56;;;7.10;78.86
82160;BME280;71734;50.876;7.372;2024-03-02T08:09:16;97697.56;;;7.30;79.29
82160;BME280;71734;50.876;7.372;2024-03-02T08:11:43;97684.63;;;7.44;77.26
82160;BME280;71734;50.876;7.372;2024-03-02T08:14:09;97690.34;;;7.54;77.31
82160;BME280;71734;50.876;7.372;2024-03-02T08:16:36;97676.34;;;7.70;76.38
82160;BME280;71734;50.876;7.372;2024-03-02T08:19:03;97685.50;;;7.82;75.55
82160;BME280;71734;50.876;7.372;2024-03-02T08:21:31;97693.91;;;7.90;75.05
82160;BME280;71734;50.876;7.372;2024-03-02T08:24:00;97690.78;;;7.82;75.35
82160;BME280;71734;50.876;7.372;2024-03-02T08:26:27;97698.28;;;8.08;74.79
82160;BME280;71734;50.876;7.372;2024-03-02T08:28:57;97671.44;;;8.17;74.34
82160;BME280;71734;50.876;7.372;2024-03-02T08:32:15;97679.69;;;8.47;73.27
82160;BME280;71734;50.876;7.372;2024-03-02T08:34:42;97679.13;;;8.40;72.68
82160;BME280;71734;50.876;7.372;2024-03-02T08:37:10;97682.56;;;8.60;72.61
82160;BME280;71734;50.876;7.372;2024-03-02T08:39:37;97685.91;;;8.63;71.92
82160;BME280;71734;50.876;7.372;2024-03-02T08:42:04;97672.94;;;8.59;72.21
82160;BME280;71734;50.876;7.372;2024-03-02T08:44:30;97672.84;;;8.77;70.82
82160;BME280;71734;50.876;7.372;2024-03-02T08:46:58;97682.25;;;8.83;70.38
82160;BME280;71734;50.876;7.372;2024-03-02T08:49:25;97687.19;;;9.06;70.52
82160;BME280;71734;50.876;7.372;2024-03-02T08:51:53;97681.84;;;8.73;70.86
82160;BME280;71734;50.876;7.372;2024-03-02T08:54:22;97682.53;;;8.94;70.47
82160;BME280;71734;50.876;7.372;2024-03-02T08:56:50;97701.66;;;8.99;69.68
82160;BME280;71734;50.876;7.372;2024-03-02T08:59:16;97698.38;;;9.11;70.63
82160;BME280;71734;50.876;7.372;2024-03-02T09:01:43;97681.28;;;9.01;69.82
82160;BME280;71734;50.876;7.372;2024-03-02T09:04:16;97675.59;;;9.42;70.08
82160;BME280;71734;50.876;7.372;2024-03-02T09:06:42;97692.16;;;9.45;67.79
82160;BME280;71734;50.876;7.372;2024-03-02T09:09:09;97682.59;;;9.58;68.36
82160;BME280;71734;50.876;7.372;2024-03-02T09:11:37;97677.00;;;9.64;67.88
82160;BME280;71734;50.876;7.372;2024-03-02T09:14:13;97686.72;;;9.64;67.33
82160;BME280;71734;50.876;7.372;2024-03-02T09:16:40;97673.84;;;9.89;67.14
82160;BME280;71734;50.876;7.372;2024-03-02T09:19:06;97678.72;;;10.28;65.87
82160;BME280;71734;50.876;7.372;2024-03-02T09:21:33;97679.06;;;10.06;66.08
82160;BME280;71734;50.876;7.372;2024-03-02T09:23:59;97670.16;;;10.07;67.55
82160;BME280;71734;50.876;7.372;2024-03-02T09:26:29;97672.81;;;10.07;65.93
82160;BME280;71734;50.876;7.372;2024-03-02T09:28:57;97670.69;;;9.98;67.17
82160;BME280;71734;50.876;7.372;2024-03-02T09:31:23;97661.81;;;9.84;66.38
82160;BME280;71734;50.876;7.372;2024-03-02T09:33:50;97665.31;;;10.15;67.47
82160;BME280;71734;50.876;7.372;2024-03-02T09:36:17;97670.00;;;9.95;65.96
82160;BME280;71734;50.876;7.372;2024-03-02T09:38:58;97673.78;;;10.06;67.42
82160;BME280;71734;50.876;7.372;2024-03-02T09:41:25;97668.75;;;10.63;65.82
82160;BME280;71734;50.876;7.372;2024-03-02T09:43:52;97665.13;;;10.64;65.68
82160;BME280;71734;50.876;7.372;2024-03-02T09:46:20;97669.41;;;11.10;62.90
82160;BME280;71734;50.876;7.372;2024-03-02T09:48:47;97664.09;;;11.39;63.71
82160;BME280;71734;50.876;7.372;2024-03-02T09:51:15;97669.72;;;11.48;61.52
82160;BME280;71734;50.876;7.372;2024-03-02T09:53:45;97677.94;;;11.44;62.50
82160;BME280;71734;50.876;7.372;2024-03-02T09:56:13;97674.91;;;11.22;62.08
82160;BME280;71734;50.876;7.372;2024-03-02T09:58:41;97677.75;;;11.04;62.58
82160;BME280;71734;50.876;7.372;2024-03-02T10:01:09;97674.72;;;11.39;62.00
82160;BME280;71734;50.876;7.372;2024-03-02T10:03:38;97679.66;;;11.45;62.02
82160;BME280;71734;50.876;7.372;2024-03-02T10:06:21;97675.09;;;11.61;61.49
82160;BME280;71734;50.876;7.372;2024-03-02T10:08:48;97668.66;;;11.65;60.61
82160;BME280;71734;50.876;7.372;2024-03-02T10:11:29;97688.63;;;11.42;61.10
82160;BME280;71734;50.876;7.372;2024-03-02T10:14:06;97683.44;;;11.97;61.80
82160;BME280;71734;50.876;7.372;2024-03-02T10:16:37;97677.13;;;12.13;59.44
82160;BME280;71734;50.876;7.372;2024-03-02T10:19:23;97685.66;;;12.18;60.03
82160;BME280;71734;50.876;7.372;2024-03-02T10:21:52;97681.91;;;11.93;60.85
82160;BME280;71734;50.876;7.372;2024-03-02T10:24:20;97669.34;;;12.36;59.41
82160;BME280;71734;50.876;7.372;2024-03-02T10:26:50;97667.28;;;12.00;60.14
82160;BME280;71734;50.876;7.372;2024-03-02T10:29:18;97680.94;;;12.08;60.02
82160;BME280;71734;50.876;7.372;2024-03-02T10:31:45;97677.06;;;12.00;58.91
82160;BME280;71734;50.876;7.372;2024-03-02T10:34:13;97685.44;;;12.21;58.04
82160;BME280;71734;50.876;7.372;2024-03-02T10:36:43;97665.38;;;12.02;58.85
82160;BME280;71734;50.876;7.372;2024-03-02T10:39:12;97677.72;;;12.03;59.64
82160;BME280;71734;50.876;7.372;2024-03-02T10:41:39;97667.72;;;12.21;60.13
82160;BME280;71734;50.876;7.372;2024-03-02T10:44:09;97660.13;;;12.81;58.39
82160;BME280;71734;50.876;7.372;2024-03-02T10:46:36;97667.19;;;13.08;57.21
82160;BME280;71734;50.876;7.372;2024-03-02T10:49:05;97658.66;;;12.90;56.27
82160;BME280;71734;50.876;7.372;2024-03-02T10:51:33;97658.00;;;12.86;56.35
82160;BME280;71734;50.876;7.372;2024-03-02T10:54:03;97658.63;;;12.38;57.46
82160;BME280;71734;50.876;7.372;2024-03-02T10:56:32;97657.84;;;12.50;57.66
82160;BME280;71734;50.876;7.372;2024-03-02T10:59:02;97650.31;;;12.69;57.86
82160;BME280;71734;50.876;7.372;2024-03-02T11:01:32;97632.72;;;12.93;57.88
82160;BME280;71734;50.876;7.372;2024-03-02T11:04:02;97632.38;;;12.85;56.50
82160;BME280;71734;50.876;7.372;2024-03-02T11:06:30;97649.13;;;13.38;56.46
82160;BME280;71734;50.876;7.372;2024-03-02T11:09:07;97644.97;;;13.34;56.56
82160;BME280;71734;50.876;7.372;2024-03-02T11:11:43;97641.03;;;13.14;56.77
82160;BME280;71734;50.876;7.372;2024-03-02T11:14:14;97643.38;;;13.44;57.29
82160;BME280;71734;50.876;7.372;2024-03-02T11:16:43;97649.53;;;13.07;55.90
82160;BME280;71734;50.876;7.372;2024-03-02T11:19:11;97635.47;;;13.04;54.58
82160;BME280;71734;50.876;7.372;2024-03-02T11:21:39;97644.00;;;13.10;55.65
82160;BME280;71734;50.876;7.372;2024-03-02T11:24:40;97654.84;;;12.94;56.22
82160;BME280;71734;50.876;7.372;2024-03-02T11:27:14;97639.28;;;12.88;55.99
82160;BME280;71734;50.876;7.372;2024-03-02T11:29:45;97657.88;;;13.40;57.45
82160;BME280;71734;50.876;7.372;2024-03-02T11:32:21;97648.16;;;13.52;57.10
82160;BME280;71734;50.876;7.372;2024-03-02T11:34:50;97651.44;;;13.04;54.95
82160;BME280;71734;50.876;7.372;2024-03-02T11:37:17;97649.53;;;13.57;55.47
82160;BME280;71734;50.876;7.372;2024-03-02T11:39:49;97633.16;;;13.13;56.21
82160;BME280;71734;50.876;7.372;2024-03-02T11:42:16;97654.56;;;12.72;57.37
82160;BME280;71734;50.876;7.372;2024-03-02T11:44:46;97645.56;;;12.35;57.59
82160;BME280;71734;50.876;7.372;2024-03-02T11:47:16;97665.25;;;12.18;58.90
82160;BME280;71734;50.876;7.372;2024-03-02T11:49:44;97658.97;;;11.92;61.62
82160;BME280;71734;50.876;7.372;2024-03-02T11:52:12;97649.88;;;11.68;60.68
82160;BME280;71734;50.876;7.372;2024-03-02T11:54:41;97647.22;;;11.68;60.85
82160;BME280;71734;50.876;7.372;2024-03-02T11:57:14;97657.47;;;11.60;61.76
82160;BME280;71734;50.876;7.372;2024-03-02T11:59:41;97647.03;;;11.85;60.74
82160;BME280;71734;50.876;7.372;2024-03-02T12:02:14;97642.44;;;12.68;60.02
82160;BME280;71734;50.876;7.372;2024-03-02T12:04:41;97636.97;;;12.83;57.43
82160;BME280;71734;50.876;7.372;2024-03-02T12:07:08;97628.81;;;13.12;56.24
82160;BME280;71734;50.876;7.372;2024-03-02T12:09:35;97617.63;;;13.07;57.16
82160;BME280;71734;50.876;7.372;2024-03-02T12:12:04;97603.63;;;13.66;55.84
82160;BME280;71734;50.876;7.372;2024-03-02T12:14:32;97615.84;;;13.81;55.06
82160;BME280;71734;50.876;7.372;2024-03-02T12:17:00;97596.38;;;14.52;53.63
82160;BME280;71734;50.876;7.372;2024-03-02T12:19:27;97612.69;;;14.24;52.66
82160;BME280;71734;50.876;7.372;2024-03-02T12:21:55;97612.47;;;13.54;54.58
82160;BME280;71734;50.876;7.372;2024-03-02T12:24:22;97608.41;;;12.60;56.25
82160;BME280;71734;50.876;7.372;2024-03-02T12:26:49;97614.75;;;12.45;58.87
82160;BME280;71734;50.876;7.372;2024-03-02T12:29:18;97617.94;;;12.37;59.22
82160;BME280;71734;50.876;7.372;2024-03-02T12:31:47;97603.31;;;12.57;58.14
82160;BME280;71734;50.876;7.372;2024-03-02T12:34:15;97607.41;;;13.13;57.03
82160;BME280;71734;50.876;7.372;2024-03-02T12:36:46;97604.00;;;12.98;55.17
82160;BME280;71734;50.876;7.372;2024-03-02T12:39:15;97593.91;;;13.78;55.27
82160;BME280;71734;50.876;7.372;2024-03-02T12:41:41;97598.19;;;13.19;55.81
82160;BME280;71734;50.876;7.372;2024-03-02T12:44:08;97592.53;;;13.23;55.80
82160;BME280;71734;50.876;7.372;2024-03-02T12:46:35;97594.09;;;12.75;55.17
82160;BME280;71734;50.876;7.372;2024-03-02T12:49:08;97583.75;;;13.59;55.36
82160;BME280;71734;50.876;7.372;2024-03-02T12:51:38;97589.94;;;13.47;54.97
82160;BME280;71734;50.876;7.372;2024-03-02T12:54:05;97583.09;;;14.16;55.47
82160;BME280;71734;50.876;7.372;2024-03-02T12:56:32;97577.78;;;14.16;53.28
82160;BME280;71734;50.876;7.372;2024-03-02T12:58:59;97582.38;;;14.14;53.90
82160;BME280;71734;50.876;7.372;2024-03-02T13:01:26;97586.00;;;14.13;53.02
82160;BME280;71734;50.876;7.372;2024-03-02T13:03:53;97581.53;;;13.89;52.94
82160;BME280;71734;50.876;7.372;2024-03-02T13:06:28;97572.56;;;13.90;53.61
82160;BME280;71734;50.876;7.372;2024-03-02T13:08:55;97585.97;;;13.65;52.95
82160;BME280;71734;50.876;7.372;2024-03-02T13:11:41;97579.78;;;13.65;54.01
82160;BME280;71734;50.876;7.372;2024-03-02T13:14:38;97579.56;;;13.19;54.21